Tiempo atmosférico en la estación meteorológica de Santander, Cantabria (52 m.)



Fecha
DESCASC
Temp. máxima en grados centígrados (hora)
DESCASC
Temp. mínima en grados centígrados (hora)
DESCASC
Temp. media en grados centígrados
DESCASC
Racha de viento máxima en m/sg (hora)
DESCASC
Velocidad máxima media en intervalos de 10 minutos(hora)
DESCASC
Precipitaciones diarias en mm
DESCASC
Precipitaciones de 00:00 a 06:00 en mm
DESCASC
Precipitaciones de 06:00 a 12:00 en mm
DESCASC
Precipitaciones de 12:00 a 18:00 en mm
DESCASC
Precipitaciones de 18:00 a 24:00 en mm
DESCASC
15-08-2019 21.9 (15:20) 17.7 (23:59) 19.8 12.22 (04:00) 6.94 (02:10) 0.8 0.8 0 0 0
14-08-2019 23.5 (18:20) 15.7 (00:00) 19.6 8.06 (21:00) -- (--) -- 0 0 -- 2.4
13-08-2019 21.6 (16:50) 15.2 (00:00) 18.4 8.61 (19:10) 6.67 (19:50) 0 0 0 0 0
12-08-2019 20.2 (13:50) 15.3 (00:00) 17.8 13.61 (13:40) 9.17 (13:40) 5.4 2.8 1.2 1.4 0
11-08-2019 20.2 (13:30) 15.6 (00:00) 17.9 8.89 (21:10) 6.39 (21:10) 19.4 0.8 4.4 14 0.2
10-08-2019 22.6 (11:50) 19.5 (00:00) 21.1 8.06 (12:40) 6.39 (11:20) 0.4 0.4 0 0 0
09-08-2019 31.4 (00:00) 20.7 (00:00) 26.1 11.67 (03:10) 7.78 (06:40) 0 0 0 0 0
08-08-2019 34.8 (18:30) 20.3 (00:00) 27.5 11.94 (17:00) 7.22 (16:20) 0 0 0 0 0
07-08-2019 24.2 (14:00) 19.4 (00:00) 21.8 11.39 (16:30) 7.78 (16:30) 0 0 0 0 0
06-08-2019 22.8 (16:00) 17.7 (00:00) 20.3 7.22 (22:50) 4.72 (22:50) 0 0 0 0 0
05-08-2019 24 (16:40) 17.6 (00:00) 20.8 6.11 (17:40) 4.44 (17:50) 0 0 0 0 0
04-08-2019 22.8 (15:50) 19.6 (00:00) 21.2 4.44 (10:30) 3.61 (12:40) 0 0 0 0 0
03-08-2019 23.5 (16:10) 17.9 (00:00) 20.7 8.06 (11:10) 5.56 (12:00) 0 0 0 0 0
02-08-2019 23 (15:30) 17.7 (00:00) 20.4 12.22 (13:50) 7.78 (15:00) 0 0 0 0 0
01-08-2019 21.4 (16:50) 16.9 (00:00) 19.1 6.39 (00:10) 4.44 (19:30) 0.4 0 0.4 0 0
31-07-2019 21.8 (14:30) 15.6 (00:00) 18.7 10.83 (16:40) 8.06 (13:20) 0 0 0 0 0
30-07-2019 20.8 (16:10) 17.8 (00:00) 19.3 14.17 (05:20) 9.44 (01:20) 0 0 0 0 0
29-07-2019 22.7 (11:00) 17 (00:00) 19.9 13.61 (22:40) 9.17 (22:30) 0 0 0 0 0
28-07-2019 22.4 (16:00) 15.6 (00:00) 19 10.56 (18:50) 7.78 (20:30) 0.6 0.6 0 0 0
27-07-2019 18.6 (15:50) 15.1 (00:00) 16.9 9.44 (17:20) 7.22 (17:30) 13.4 7.4 1.4 3.6 1
26-07-2019 21.1 (00:00) 16.9 (00:00) 19 12.5 (15:10) 9.17 (15:10) 18.2 2.8 8.2 6.6 0.6
25-07-2019 24.6 (12:10) 20.8 (00:00) 22.7 7.78 (23:30) 5.56 (23:30) 0 0 0 0 0
24-07-2019 25 (15:00) 19.9 (00:00) 22.4 9.72 (18:10) 6.39 (17:10) 0 0 0 0 0
23-07-2019 29.6 (10:50) 19.6 (00:00) 24.6 10.83 (10:30) 7.5 (04:10) 1.6 0 0 0 1.6
22-07-2019 24.2 (15:20) 20 (00:00) 22.1 8.89 (11:00) 6.39 (12:20) 0.2 0 0 0 0.2
21-07-2019 23.6 (16:10) 19.1 (00:00) 21.4 9.72 (14:50) 7.5 (14:50) 1.6 0 1.6 0 0
20-07-2019 23.5 (17:40) 19 (00:00) 21.3 6.67 (16:20) 4.72 (16:20) 0 0 0 0 0
19-07-2019 23.7 (14:20) 16.3 (00:00) 20 10.28 (13:30) 7.78 (13:30) 0 0 0 0 0

Gráficas

Temp. máximas Temp. mínimas Temp. medias Precipitaciones Rachas de viento máximas Velocidades máximas media en intervalos de 10 minutos

Datos horarios

Fecha y hora oficial Temperatura (ºC) Velocidad del viento (km/h) Dirección del viento Racha (km/h) Dirección de racha Precipitación (mm) Presión (hPa) Tendencia (hPa) Humedad (%)
2019-08-17 23:00:00 21.4 10 Este 19 Este 0 1005.6 -0.7 81
2019-08-17 22:00:00 21.6 9 Este 20 Sudeste 0 1005.8 -0.8 80
2019-08-17 21:00:00 22.5 14 Este 22 Este 0 1006 -0.8 76
2019-08-17 20:00:00 23.6 11 Este 17 Este 0 1006.3 -0.8 71
2019-08-17 19:00:00 24.3 13 Este 15 Este 0 1006.6 -0.9 68
2019-08-17 18:00:00 24.9 12 Este 15 Este 0 1006.8 -1.2 66
2019-08-17 17:00:00 25 13 Este 15 Este 0 1007.1 -1.4 65
2019-08-17 16:00:00 25.6 10 Este 14 Este 0 1007.5 -1.3 61
2019-08-17 15:00:00 25.5 7 Nordeste 10 Nordeste 0 1008 -1.2 58
2019-08-17 14:00:00 23.2 4 Norte 10 Oeste 0 1008.5 -0.7 72
2019-08-17 13:00:00 23.5 6 Noroeste 17 Oeste 0 1008.8 -0.2 71
2019-08-17 12:00:00 23.3 13 Oeste 17 Oeste 0 1009.2 0.4 71
2019-08-17 11:00:00 21.4 8 Noroeste 15 Noroeste 0 1009.2 0.5 73
2019-08-17 10:00:00 21.8 5 Sur 9 Sur 0 1009 0.5 67
2019-08-17 09:00:00 19.6 8 Sur 13 Sudeste 0 1008.8 0.2 78
2019-08-17 08:00:00 17.7 10 Sur 14 Sudeste 0 1008.7 -0.2 86
2019-08-17 07:00:00 17.1 10 Sur 18 Sudeste 0 1008.5 -0.9 88
2019-08-17 06:00:00 17.3 10 Sudeste 17 Sur 0 1008.6 -1.7 87
2019-08-17 05:00:00 17.6 8 Sur 12 Sur 0 1008.9 -1.7 91
2019-08-17 04:00:00 18.3 9 Sur 10 Sur 0 1009.4 -1.4 86
2019-08-17 03:00:00 18.9 8 Sudoeste 13 Sur 0 1010.3 -0.5 85
2019-08-17 02:00:00 19 10 Sur 15 Sudoeste 0 1010.6 -0.5 87
2019-08-17 01:00:00 19.2 10 Sudoeste 14 Sudoeste 0 1010.8 0 88
2019-08-17 00:00:00 19.3 9 Sudoeste 17 Oeste 0 1010.8 0.4 88
2019-08-16 23:00:00 19.4 12 Oeste 21 Oeste 0 1011.1 1 87
2019-08-16 22:00:00 20 16 Oeste 22 Oeste 0 1010.8 0.4 83
2019-08-16 21:00:00 20.9 14 Oeste 22 Oeste 0 1010.4 0.1 78
2019-08-16 20:00:00 21.6 13 Oeste 23 Oeste 0 1010.1 -0.1 73
2019-08-16 19:00:00 22.8 18 Oeste 24 Oeste 0 1010.4 -0.2 66
2019-08-16 18:00:00 22.7 13 Noroeste 18 Noroeste 0 1010.3 -0.5 68
2019-08-16 17:00:00 22.3 8 Noroeste 13 Noroeste 0 1010.2 -1.1 69
2019-08-16 16:00:00 22.1 8 Noroeste 12 Noroeste 0 1010.6 -1 67
2019-08-16 15:00:00 21.5 6 Norte 9 Norte 0 1010.8 -0.5 68
2019-08-16 14:00:00 21.2 6 Norte 12 Norte 0 1011.3 -0.3 70
2019-08-16 13:00:00 20.7 9 Norte 13 Norte 0 1011.6 0 74
2019-08-16 12:00:00 20.2 5 Nordeste 9 Nordeste 0 1011.3 -0.8 74
2019-08-16 11:00:00 19.4 6 Nordeste 10 Nordeste 0 1011.6 -0.7 76
2019-08-16 10:00:00 19.6 6 Este 10 Este 0 1011.6 -0.7 72
2019-08-16 09:00:00 18.8 3 Sudeste 13 Sur 0 1012.1 -0.2 79
2019-08-16 08:00:00 16.1 11 Sur 15 Sur 0 1012.3 -0.7 87
2019-08-16 07:00:00 15.3 9 Sur 12 Sur 0 1012.3 -1 90
2019-08-16 06:00:00 15.7 11 Sur 12 Sur 0 1012.3 -1.4 91
2019-08-16 05:00:00 16 9 Sudeste 13 Sudeste 0 1013 -1.7 86
2019-08-16 04:00:00 16.2 11 Sudeste 15 Sudeste 0 1013.3 -1.7 85
2019-08-16 03:00:00 16.7 13 Sur 17 Sudeste 0 1013.7 -1.8 84
2019-08-16 02:00:00 17.2 10 Sudeste 13 Sudeste 0 1014.7 -1.5 83
2019-08-16 01:00:00 17.5 8 Sudeste 15 Sudeste 0 1015 -1.2 83
2019-08-16 00:00:00 17.8 11 Sudeste 14 Sudeste 0 1015.5 -0.3 81
2019-08-15 23:00:00 18.6 9 Sudeste 16 Este 0 1016.2 0.6 76
2019-08-15 22:00:00 19.2 11 Este 19 Nordeste 0 1016.2 0 70
2019-08-15 21:00:00 19.6 12 Nordeste 17 Nordeste 0 1015.8 -0.7 70
2019-08-15 20:00:00 20.8 10 Este 15 Este 0 1015.6 -0.9 65
2019-08-15 19:00:00 21.4 9 Nordeste 15 Nordeste 0 1016.2 -0.6 65
2019-08-15 18:00:00 21.6 10 Nordeste 16 Nordeste 0 1016.5 -0.3 64
2019-08-15 17:00:00 21.5 11 Norte 17 Norte 0 1016.5 -0.3 66
2019-08-15 16:00:00 21.6 12 Norte 19 Norte 0 1016.8 -0.1 68
2019-08-15 15:00:00 21.7 10 Norte 18 Norte 0 1016.8 0 63
2019-08-15 14:00:00 21.3 10 Norte 18 Noroeste 0 1016.8 0.1 63
2019-08-15 13:00:00 21 13 Norte 20 Norte 0 1016.9 0.3 69
2019-08-15 12:00:00 20.4 8 Noroeste 15 Noroeste 0 1016.8 0.4 70
2019-08-15 11:00:00 19.9 10 Noroeste 22 Oeste 0 1016.7 0.7 71
2019-08-15 10:00:00 19.4 13 Noroeste 21 Oeste 0 1016.6 1.1 75
2019-08-15 09:00:00 19.1 13 Noroeste 27 Noroeste 0 1016.4 1.1 78
2019-08-15 08:00:00 18 7 Sudoeste 22 Noroeste 0 1016 1 89
2019-08-15 07:00:00 18.7 14 Noroeste 28 Noroeste 0 1015.5 0.5 79
2019-08-15 06:00:00 18.4 15 Oeste 30 Noroeste 0 1015.3 0.5 85
2019-08-15 05:00:00 19.2 18 Noroeste 35 Noroeste 0 1015 0.3 80
2019-08-15 04:00:00 19.3 24 Noroeste 44 Noroeste 0 1015 0.4 84
2019-08-15 03:00:00 19.9 22 Noroeste 35 Noroeste 0 1014.8 0.1 87
2019-08-15 02:00:00 20.2 22 Noroeste 31 Noroeste 0 1014.7 0.1 94
2019-08-15 01:00:00 19.9 13 Oeste 23 Noroeste 0.8 1014.6 0.3 97
2019-08-15 00:00:00 20.1 11 Oeste 21 Oeste 0.4 1014.7 0.9 97
2019-08-14 23:00:00 19.9 13 Oeste 20 Oeste 2 1014.6 1.1 97
2019-08-14 22:00:00 20.6 14 Oeste 24 Oeste 0 1014.3 0.8 86
2019-08-14 21:00:00 21.2 18 Oeste 29 Oeste 0 1013.8 0.2 76
2019-08-14 20:00:00 21.6 17 Oeste 24 Oeste 0 1013.5 -0.3 73
2019-08-14 19:00:00 22.2 15 Oeste 23 Oeste 0 1013.5 -0.6 67
2019-08-14 18:00:00 22.9 13 Oeste 18 Oeste 0 1013.6 -0.5 60
2019-08-14 17:00:00 22.8 10 Noroeste 19 Oeste 0 1013.8 -0.2 62
2019-08-14 16:00:00 22.5 13 Oeste 21 Oeste 0 1014.1 -- 68
2019-08-14 15:00:00 22.7 14 Oeste 22 Oeste 0 1014.1 0.4 63
2019-08-14 14:00:00 23 15 Oeste -- -- -- 1014 0.6 66
2019-08-14 13:00:00 -- -- -- -- -- -- -- -- --
2019-08-14 12:00:00 21.6 14 Noroeste 23 Noroeste 0 1013.7 0.3 70
2019-08-14 11:00:00 21.9 12 Oeste 19 Oeste 0 1013.4 0.4 66
2019-08-14 10:00:00 20 10 Sudoeste 18 Sudoeste 0 1013.3 0.3 70
2019-08-14 09:00:00 18.4 11 Sudoeste 17 Sudoeste 0 1013.4 0.6 76
2019-08-14 08:00:00 16.9 10 Sudoeste 18 Sur 0 1013 0 83
2019-08-14 07:00:00 16.2 10 Sur 15 Sur 0 1013 -0.1 85
2019-08-14 06:00:00 16 11 Sur 13 Sur 0 1012.8 -0.7 86
2019-08-14 05:00:00 16.3 4 Este 6 Este 0 1013 -1.6 85
2019-08-14 04:00:00 16.1 3 Sudeste 18 Sur 0 1013.1 -1.8 84
2019-08-14 03:00:00 16.1 12 Sur 18 Sur 0 1013.5 -1.9 82
2019-08-14 02:00:00 16.1 11 Sur 15 Sur 0 1014.6 -0.9 80
2019-08-14 01:00:00 16.4 11 Sudeste 17 Sudeste 0 1014.9 -0.6 78
2019-08-14 00:00:00 17.3 14 Sudeste 20 Este 0 1015.4 0.2 75
2019-08-13 23:00:00 18.1 14 Este 23 Sudeste 0 1015.5 0.5 72
2019-08-13 22:00:00 18.5 15 Este 30 Este 0 1015.5 0.5 69
2019-08-13 21:00:00 19.2 23 Este 31 Este 0 1015.2 -0.3 67
2019-08-13 20:00:00 19.9 22 Este 31 Este 0 1015 -0.9 65
2019-08-13 19:00:00 20.4 22 Este 31 Este 0 1015 -1.2 64
2019-08-13 18:00:00 21 18 Este 26 Este 0 1015.5 -0.9 61
2019-08-13 17:00:00 21.4 19 Nordeste 26 Nordeste 0 1015.9 -0.5 60
2019-08-13 16:00:00 21.4 18 Nordeste 25 Nordeste 0 1016.2 -0.6 62
2019-08-13 15:00:00 21.2 19 Nordeste 26 Nordeste 0 1016.4 -0.6 65
2019-08-13 14:00:00 21.1 17 Nordeste 23 Nordeste 0 1016.4 -0.8 66
2019-08-13 13:00:00 20.9 13 Nordeste 17 Nordeste 0 1016.8 -0.4 66
2019-08-13 12:00:00 21.1 7 Nordeste 10 Nordeste 0 1017 0 65
2019-08-13 11:00:00 20.7 6 Nordeste 12 Sudeste 0 1017.2 0.3 66
2019-08-13 10:00:00 18.5 8 Sudoeste 14 Sudoeste 0 1017.2 0.7 75
2019-08-13 09:00:00 16.3 12 Sudoeste 16 Sudoeste 0 1017 0.5 80
2019-08-13 08:00:00 15.6 13 Sur 16 Sur 0 1016.9 0.1 81
2019-08-13 07:00:00 15.4 12 Sur 15 Sudoeste 0 1016.5 -0.5 81
2019-08-13 06:00:00 15.6 12 Sur 15 Sur 0 1016.5 -1 80
2019-08-13 05:00:00 16.2 11 Sur 16 Sudoeste 0 1016.8 -1.4 78
2019-08-13 04:00:00 16.1 12 Sudoeste 17 Sudoeste 0 1017 -1.5 78
2019-08-13 03:00:00 16.6 11 Sudoeste 15 Sudoeste 0 1017.5 -1.2 77
2019-08-13 02:00:00 16.8 10 Sur 13 Sur 0 1018.2 -0.3 77
2019-08-13 01:00:00 18.4 9 Norte 17 Norte 0 1018.5 0.5 68
2019-08-13 00:00:00 18.5 9 Norte 17 Norte 0 1018.7 1.4 70
2019-08-12 23:00:00 18.6 10 Norte 25 Noroeste 0 1018.5 1.3 67
2019-08-12 22:00:00 18.7 14 Norte 20 Norte 0 1018 0.8 69
2019-08-12 21:00:00 18.7 10 Norte 24 Norte 0 1017.3 0.2 66
2019-08-12 20:00:00 19.2 17 Noroeste 27 Noroeste 0 1017.2 0 66
2019-08-12 19:00:00 19.3 18 Noroeste 31 Noroeste 0 1017.2 -0.2 69
2019-08-12 18:00:00 20 19 Noroeste 34 Noroeste 0 1017.1 -0.4 66
2019-08-12 17:00:00 19.7 21 Noroeste 41 Noroeste 0.2 1017.2 0 69
2019-08-12 16:00:00 19 19 Noroeste 35 Oeste 0 1017.4 0.3 76
2019-08-12 15:00:00 17.2 21 Oeste 41 Oeste 1.2 1017.5 0.8 80
2019-08-12 14:00:00 20.2 29 Oeste 49 Oeste 0 1017.2 1 70
2019-08-12 13:00:00 18.7 27 Oeste 45 Oeste 0 1017.1 1.2 72
2019-08-12 12:00:00 18.9 31 Oeste 45 Oeste 0 1016.7 1.3 72
2019-08-12 11:00:00 18.6 27 Oeste 46 Oeste 0 1016.2 1.4 79
2019-08-12 10:00:00 17.1 31 Noroeste 49 Noroeste 0 1015.9 1.7 78
2019-08-12 09:00:00 15.8 13 Sudoeste 46 Noroeste 0 1015.4 1.5 81
2019-08-12 08:00:00 15.9 21 Oeste 35 Oeste 0 1014.8 0.6 84
2019-08-12 07:00:00 15.4 17 Sudoeste 43 Noroeste 1.2 1014.2 0.1 84
2019-08-12 06:00:00 15.4 13 Sudoeste 26 Sudoeste 2.8 1013.9 -0.4 85
2019-08-12 05:00:00 16 14 Sudoeste 30 Oeste 0 1014.2 -0.5 80
2019-08-12 04:00:00 16.4 13 Sudoeste 24 Sudoeste 0 1014.1 -0.9 77
2019-08-12 03:00:00 16.4 12 Sudoeste 22 Sudoeste 0 1014.3 -0.6 78
2019-08-12 02:00:00 15.9 15 Sudoeste 20 Sudoeste 0 1014.7 -0.1 82
2019-08-12 01:00:00 16.3 13 Sudoeste 22 Sudoeste 0 1015 0.6 83
2019-08-12 00:00:00 15.9 13 Sudoeste 21 Oeste 0 1014.9 0.7 87
2019-08-11 23:00:00 15.7 14 Sudoeste 24 Sudoeste 0 1014.8 1.1 89
2019-08-11 22:00:00 15.9 13 Sudoeste 32 Oeste 0 1014.4 1.2 88
2019-08-11 21:00:00 17.1 9 Sudoeste 18 Oeste 0.2 1014.2 1 86
2019-08-11 20:00:00 17.9 15 Oeste 21 Sudoeste 0 1013.7 0.6 84
2019-08-11 19:00:00 18.4 7 Oeste 10 Oeste 0 1013.2 0 83
2019-08-11 18:00:00 18.6 6 Oeste 10 Noroeste 0.2 1013.2 0.1 86
2019-08-11 17:00:00 17.8 4 Noroeste 10 Norte 0 1013.1 0.4 88
2019-08-11 16:00:00 17.2 8 Norte 19 Norte 1.6 1013.2 0.3 90
2019-08-11 15:00:00 16 13 Norte 30 Norte 9.6 1013.1 0.5 89
2019-08-11 14:00:00 18.5 11 Oeste 16 Oeste 2.6 1012.7 0.6 83
2019-08-11 13:00:00 19.5 7 Sur 12 Sur 0 1012.9 0.9 86
2019-08-11 12:00:00 18.1 7 Sudeste 16 Norte 2.2 1012.6 0.8 89
2019-08-11 11:00:00 18.2 11 Norte 19 Norte 0 1012.1 0.7 85
2019-08-11 10:00:00 19.1 5 Sur 10 Sudoeste 0 1012 0.9 87
2019-08-11 09:00:00 17.6 7 Sudoeste 11 Sudoeste 0 1011.8 0.5 89
2019-08-11 08:00:00 17.1 7 Oeste 18 Sudeste 0.4 1011.4 -0.5 89
2019-08-11 07:00:00 17.1 8 Sur 19 Oeste 1.8 1011.1 -0.9 87
2019-08-11 06:00:00 17.8 6 Sudoeste 19 Oeste 0.6 1011.3 -0.9 84
2019-08-11 05:00:00 18.8 7 Sudoeste 12 Sudoeste 0.2 1011.9 -1.2 81
2019-08-11 04:00:00 19 8 Sudoeste 11 Oeste 0 1012 -1.4 80
2019-08-11 03:00:00 19.5 4 Sudoeste 5 Oeste 0 1012.2 -1.7 79
2019-08-11 02:00:00 19.5 0 Calma 5 Este 0 1013.1 -0.7 80
2019-08-11 01:00:00 19.4 0 Calma 4 Nordeste 0 1013.4 -0.8 77
2019-08-11 00:00:00 19.7 0 Calma 5 Sudeste 0 1013.9 -0.2 76
2019-08-10 23:00:00 19.5 4 Este 5 Este 0 1013.8 0 75
2019-08-10 22:00:00 20 2 Este 7 Nordeste 0 1014.2 0.4 73
2019-08-10 21:00:00 20.4 3 Nordeste 6 Nordeste 0 1014.1 0.3 72
2019-08-10 20:00:00 20.9 6 Este 10 Nordeste 0 1013.8 -0.3 70
2019-08-10 19:00:00 21.1 8 Nordeste 13 Nordeste 0 1013.8 -0.5 70
2019-08-10 18:00:00 21.4 9 Nordeste 17 Nordeste 0 1013.8 -0.6 70
2019-08-10 17:00:00 21.3 10 Norte 15 Nordeste 0 1014.1 -0.4 68
2019-08-10 16:00:00 21.8 10 Norte 19 Norte 0 1014.3 -0.2 69
2019-08-10 15:00:00 21.9 12 Norte 25 Norte 0 1014.4 0 68
2019-08-10 14:00:00 21.6 15 Norte 27 Noroeste 0 1014.5 0.4 69
2019-08-10 13:00:00 21.5 21 Noroeste 29 Noroeste 0 1014.5 0.5 67
2019-08-10 12:00:00 22.3 18 Noroeste 29 Noroeste 0 1014.4 1.1 67
2019-08-10 11:00:00 21.2 19 Noroeste 27 Norte 0 1014.1 1 71
2019-08-10 10:00:00 20.8 21 Noroeste 28 Noroeste 0 1014 1.7 73
2019-08-10 09:00:00 20.8 13 Noroeste 23 Noroeste 0 1013.3 1.6 74
2019-08-10 08:00:00 20.6 15 Noroeste 23 Noroeste 0 1013.1 1.7 77
2019-08-10 07:00:00 20.5 13 Noroeste 21 Noroeste 0 1012.3 1.3 80
2019-08-10 06:00:00 20.1 3 Norte 9 Norte 0.2 1011.7 0.8 83
2019-08-10 05:00:00 20.6 9 Norte 13 Noroeste 0 1011.4 0.6 83
2019-08-10 04:00:00 20.5 9 Noroeste 23 Noroeste 0.2 1011 0.8 83
2019-08-10 03:00:00 20.9 14 Noroeste 27 Norte 0 1010.9 0.8 81
2019-08-10 02:00:00 21.2 14 Norte 22 Noroeste 0 1010.8 1.4 83
2019-08-10 01:00:00 21.1 9 Sudeste 14 Sudeste 0 1010.2 1.7 82
2019-08-10 00:00:00 20.7 10 Sudeste 17 Sudeste 0 1010.1 2.1 85
2019-08-09 23:00:00 20.9 11 Sudeste 16 Sudeste 0 1009.4 2 83
2019-08-09 22:00:00 20.9 9 Sudeste 14 Sudeste 0 1008.5 1.8 83
2019-08-09 21:00:00 21.6 8 Sudeste 14 Sudeste 0 1008 2 79
2019-08-09 20:00:00 22.7 6 Este 16 Sudeste 0 1007.4 1.9 77
2019-08-09 19:00:00 22.4 12 Este 20 Este 0 1006.7 1.6 78
2019-08-09 18:00:00 22.3 12 Este 21 Este 0 1006 1.2 78
2019-08-09 17:00:00 22.6 13 Nordeste 20 Nordeste 0 1005.5 1.2 80
2019-08-09 16:00:00 22.6 15 Nordeste 25 Nordeste 0 1005.1 1.2 81
2019-08-09 15:00:00 21.9 18 Nordeste 31 Este 0 1004.8 1 83
2019-08-09 14:00:00 22.3 22 Nordeste 42 Nordeste 0 1004.3 0.8 82
2019-08-09 13:00:00 22.8 24 Nordeste 30 Nordeste 0 1003.9 0.9 82
2019-08-09 12:00:00 22.2 20 Nordeste 26 Nordeste 0 1003.8 0.9 85
2019-08-09 11:00:00 22 15 Este 22 Este 0 1003.5 1 85
2019-08-09 10:00:00 21.8 12 Nordeste 15 Nordeste 0 1003 1.2 86
2019-08-09 09:00:00 21.7 6 Nordeste 11 Norte 0 1002.9 2.9 87
2019-08-09 08:00:00 21.5 9 Norte 28 Noroeste 0 1002.5 3.3 85
2019-08-09 07:00:00 21.4 21 Noroeste 41 Norte 0 1001.8 2.3 83
2019-08-09 06:00:00 27.4 22 Sudoeste 38 Oeste 0 1000 0.6 54
2019-08-09 05:00:00 28.6 24 Sur 39 Sur 0 999.2 -0.3 48
2019-08-09 04:00:00 29.4 20 Sur 42 Sur 0 999.5 -0.3 45
2019-08-09 03:00:00 29.8 19 Sur 39 Sur 0 999.4 -0.1 44
2019-08-09 02:00:00 30.6 19 Sudoeste 33 Sur 0 999.5 0.1 43
2019-08-09 01:00:00 30.5 16 Sur 29 Sudoeste 0 999.8 0.9 44
2019-08-09 00:00:00 31.4 18 Sudoeste 34 Sudoeste 0 999.5 0.8 42
2019-08-08 23:00:00 31.4 15 Sur 30 Sur 0 999.4 0.4 42
2019-08-08 22:00:00 32.2 17 Sur 38 Sur 0 998.9 -0.4 42
2019-08-08 21:00:00 33 17 Sur 36 Oeste 0 998.7 -1.1 41
2019-08-08 20:00:00 34.5 12 Sudoeste 34 Sur 0 999 -1.4 39
2019-08-08 19:00:00 34.3 16 Sur 33 Sur 0 999.3 -2.1 39
2019-08-08 18:00:00 34.1 20 Sur 35 Sur 0 999.8 -2.1 40
2019-08-08 17:00:00 33.9 22 Sur 43 Sur 0 1000.4 -1.7 43
2019-08-08 16:00:00 29.4 14 Este 30 Este 0 1001.4 -1 61
2019-08-08 15:00:00 27.4 17 Este 26 Este 0 1001.9 -0.7 65
2019-08-08 14:00:00 33.2 13 Sudeste 31 Sur 0 1002.1 -0.4 42
2019-08-08 13:00:00 31.7 21 Sur 36 Sur 0 1002.4 -0.3 47
2019-08-08 12:00:00 30.7 18 Sur 30 Sur 0 1002.6 0 53
2019-08-08 11:00:00 28.7 20 Sur 36 Sur 0 1002.5 0 60
2019-08-08 10:00:00 26.9 15 Sur 24 Sur 0 1002.7 0 74
2019-08-08 09:00:00 24 6 Sudeste 12 Sudeste 0 1002.6 -0.5 92
2019-08-08 08:00:00 21.4 10 Sudeste 14 Sudeste 0 1002.5 -0.9 96
2019-08-08 07:00:00 20.4 12 Sudeste 15 Sudeste 0 1002.7 -0.6 96
2019-08-08 06:00:00 20.3 7 Este 15 Sudeste 0 1003.1 -0.8 95
2019-08-08 05:00:00 20.4 9 Sudeste 19 Este 0 1003.4 -0.9 95
2019-08-08 04:00:00 20.8 15 Este 21 Este 0 1003.3 -1.5 95
2019-08-08 03:00:00 20.8 14 Este 19 Este 0 1003.9 -1.1 94
2019-08-08 02:00:00 21 12 Sudeste 17 Sudeste 0 1004.3 -0.8 94
2019-08-08 01:00:00 21.1 13 Este 23 Este 0 1004.8 0.2 93
2019-08-08 00:00:00 21.3 9 Este 17 Este 0 1005 0.6 92
2019-08-07 23:00:00 21.3 12 Este 16 Este 0 1005.1 0.9 92
2019-08-07 22:00:00 21.5 12 Este 21 Este 0 1004.6 0.3 91
2019-08-07 21:00:00 21.7 16 Este 30 Este 0 1004.4 0.1 89
2019-08-07 20:00:00 22.1 18 Este 29 Nordeste 0 1004.2 -0.1 87
2019-08-07 19:00:00 22.7 14 Nordeste 28 Este 0 1004.3 -0.4 85
2019-08-07 18:00:00 22.8 21 Este 32 Este 0 1004.3 -0.7 84
2019-08-07 17:00:00 23.4 23 Este 41 Este 0 1004.3 -1.3 83
2019-08-07 16:00:00 23.8 24 Este 36 Este 0 1004.7 -1.7 81
2019-08-07 15:00:00 24.1 22 Este 32 Este 0 1005 -1.4 81
2019-08-07 14:00:00 24 18 Este 31 Nordeste 0 1005.6 -1.1 82
2019-08-07 13:00:00 23.3 12 Nordeste 20 Nordeste 0 1006.4 -0.1 84
2019-08-07 12:00:00 22.9 8 Nordeste 10 Nordeste 0 1006.4 0.1 87
2019-08-07 11:00:00 22.3 7 Noroeste 14 Noroeste 0 1006.7 0.9 89
2019-08-07 10:00:00 22.5 5 Oeste 11 Oeste 0 1006.5 1 89
2019-08-07 09:00:00 21 8 Sudoeste 14 Sudoeste 0 1006.3 1.2 92
2019-08-07 08:00:00 19.5 8 Sudoeste 14 Sudoeste 0 1005.8 0.8 94
2019-08-07 07:00:00 19.7 9 Oeste 12 Oeste 0 1005.5 0.5 94
2019-08-07 06:00:00 19.6 4 Sudoeste 9 Sudeste 0 1005.1 0.3 95
2019-08-07 05:00:00 19.7 4 Este 10 Nordeste 0 1005 -0.5 94
2019-08-07 04:00:00 20 6 Nordeste 12 Nordeste 0 1005 -1.5 94
2019-08-07 03:00:00 19.8 4 Nordeste 15 Sudeste 0 1004.8 -2.8 93
2019-08-07 02:00:00 19.9 9 Sudeste 21 Sudeste 0 1005.5 -1.4 93
2019-08-07 01:00:00 20.1 4 Sur 11 Oeste 0 1006.5 -0.5 92
2019-08-07 00:00:00 20.3 10 Oeste 20 Oeste 0 1007.6 0.5 91
2019-08-06 23:00:00 20.6 8 Noroeste 26 Oeste 0 1006.9 -0.7 89
2019-08-06 22:00:00 21.3 7 Oeste 14 Oeste 0 1007 0.2 87
2019-08-06 21:00:00 21.5 8 Noroeste 22 Oeste 0 1007.1 0.4 85
2019-08-06 20:00:00 21.7 15 Oeste 22 Oeste 0 1007.6 1.1 84
2019-08-06 19:00:00 22.1 10 Oeste 15 Noroeste 0 1006.8 0 85
2019-08-06 18:00:00 21.6 5 Norte 9 Norte 0 1006.7 0 86
2019-08-06 17:00:00 22 7 Norte 14 Norte 0 1006.5 -0.6 86
2019-08-06 16:00:00 22.5 7 Norte 10 Norte 0 1006.8 -0.3 83
2019-08-06 15:00:00 22.5 6 Norte 10 Noroeste 0 1006.7 -0.3 83
2019-08-06 14:00:00 21.8 8 Norte 11 Noroeste 0 1007.1 -0.1 85
2019-08-06 13:00:00 21.4 8 Noroeste 11 Noroeste 0 1007.1 0 85
2019-08-06 12:00:00 21.1 7 Norte 13 Noroeste 0 1007 -0.1 86
2019-08-06 11:00:00 20.5 5 Noroeste 9 Noroeste 0 1007.2 0.3 87
2019-08-06 10:00:00 20.3 3 Norte 6 Este 0 1007.1 0.2 89
2019-08-06 09:00:00 19.5 5 Este 15 Sudeste 0 1007.1 -0.3 91
2019-08-06 08:00:00 18.3 12 Sudeste 18 Sudeste 0 1006.9 -0.7 92
2019-08-06 07:00:00 17.8 8 Sur 10 Sudeste 0 1006.9 -1 91
2019-08-06 06:00:00 18.3 5 Noroeste 12 Sudeste 0 1007.4 -1 91
2019-08-06 05:00:00 18 9 Sur 12 Sudeste 0 1007.6 -1.2 92
2019-08-06 04:00:00 18.4 8 Sur 10 Sudeste 0 1007.9 -1.2 92
2019-08-06 03:00:00 18.8 6 Sur 10 Sur 0 1008.4 -1.1 91
2019-08-06 02:00:00 18.8 7 Sur 11 Sur 0 1008.8 -0.9 91
2019-08-06 01:00:00 19.2 8 Sudeste 11 Sudeste 0 1009.1 0 90
2019-08-06 00:00:00 19.4 7 Sudeste 9 Sudeste 0 1009.5 0.7 89
2019-08-05 23:00:00 19.6 5 Este 18 Este 0 1009.7 1.1 88
2019-08-05 22:00:00 20.2 12 Este 19 Este 0 1009.1 0.3 87
2019-08-05 21:00:00 21 14 Este 21 Este 0 1008.8 -0.2 84
2019-08-05 20:00:00 21.9 15 Este 21 Este 0 1008.6 -0.6 82
2019-08-05 19:00:00 22.8 12 Este 19 Este 0 1008.8 -0.6 80
2019-08-05 18:00:00 22.9 14 Este 22 Este 0 1009 -0.7 79
2019-08-05 17:00:00 23.7 15 Nordeste 19 Este 0 1009.2 -0.5 77
2019-08-05 16:00:00 23.2 14 Este 18 Este 0 1009.4 -0.4 79
2019-08-05 15:00:00 22.8 13 Nordeste 18 Nordeste 0 1009.7 -0.5 82
2019-08-05 14:00:00 22.8 14 Nordeste 18 Nordeste 0 1009.7 -0.6 83
2019-08-05 13:00:00 22.2 9 Nordeste 13 Nordeste 0 1009.8 -0.7 81
2019-08-05 12:00:00 21.9 7 Nordeste 10 Nordeste 0 1010.2 -0.3 82
2019-08-05 11:00:00 21.1 5 Nordeste 6 Norte 0 1010.3 -0.1 86
2019-08-05 10:00:00 20.5 4 Norte 5 Nordeste 0 1010.5 0.4 88
2019-08-05 09:00:00 20.6 2 Norte 4 Norte 0 1010.5 0.5 88
2019-08-05 08:00:00 18.6 4 Sur 5 Sur 0 1010.4 0.3 91
2019-08-05 07:00:00 17.8 0 Calma 4 Sudeste 0 1010.1 -0.3 90
2019-08-05 06:00:00 17.9 5 Sur 14 Sur 0 1010 -0.4 90
2019-08-05 05:00:00 17.8 12 Sur 17 Sur 0 1010.1 -0.9 90
2019-08-05 04:00:00 18.4 9 Sur 13 Sur 0 1010.4 -0.9 89
2019-08-05 03:00:00 18.7 8 Sur 10 Sur 0 1010.4 -1 89
2019-08-05 02:00:00 18.9 6 Sur 8 Sur 0 1011 -0.5 88
2019-08-05 01:00:00 19 6 Sudeste 8 Sudeste 0 1011.3 0.2 87
2019-08-05 00:00:00 19.6 0 Calma -- -- 0 1011.4 0.4 84
2019-08-04 23:00:00 19.8 2 Nordeste 3 Nordeste 0 1011.5 0.9 82
2019-08-04 22:00:00 20.3 0 Calma 8 Norte 0 1011.1 1 80
2019-08-04 21:00:00 21.3 5 Noroeste 11 Oeste 0 1011 1.2 78
2019-08-04 20:00:00 22.1 6 Norte 9 Norte 0 1010.6 0.8 78
2019-08-04 19:00:00 21.7 5 Norte 11 Norte 0 1010.1 0 79
2019-08-04 18:00:00 22.2 8 Norte 12 Norte 0 1009.8 -0.2 78
2019-08-04 17:00:00 22.6 6 Norte 9 Norte 0 1009.8 -0.3 78
2019-08-04 16:00:00 22.7 5 Nordeste 8 Nordeste 0 1010.1 0.2 84
2019-08-04 15:00:00 22.3 6 Nordeste 12 Nordeste 0 1010 0.2 87
2019-08-04 14:00:00 21.7 10 Nordeste 14 Nordeste 0 1010.1 0.2 86
2019-08-04 13:00:00 21.8 11 Nordeste 16 Nordeste 0 1009.9 -0.2 86
2019-08-04 12:00:00 21.4 10 Norte 14 Noroeste 0 1009.8 -0.2 87
2019-08-04 11:00:00 21.3 7 Noroeste 16 Oeste 0 1009.9 0.2 86
2019-08-04 10:00:00 21.5 6 Sudoeste 12 Oeste 0 1010.1 0.8 86
2019-08-04 09:00:00 20.8 6 Sudoeste 10 Sudoeste 0 1010 0.8 89
2019-08-04 08:00:00 20.1 7 Sudoeste 13 Oeste 0 1009.7 0.4 89
2019-08-04 07:00:00 19.9 8 Sudoeste 13 Sudoeste 0 1009.3 0 88
2019-08-04 06:00:00 19.8 8 Sudoeste 11 Sudoeste 0 1009.2 -0.3 88
2019-08-04 05:00:00 20 6 Sudoeste 11 Sudoeste 0 1009.3 -0.3 88
2019-08-04 04:00:00 19.8 6 Sudoeste 12 Sudoeste 0 1009.3 -0.6 89
2019-08-04 03:00:00 20 7 Sudoeste 12 Sudoeste 0 1009.5 -0.3 89
2019-08-04 02:00:00 20.1 8 Sudoeste 12 Sudoeste 0 1009.6 -0.2 88
2019-08-04 01:00:00 20.4 8 Sudoeste 12 Sudoeste 0 1009.9 0.5 87
2019-08-04 00:00:00 20.7 6 Oeste 9 Oeste 0 1009.8 0.7 88
2019-08-03 23:00:00 20.8 6 Oeste 11 Oeste 0 1009.8 1 88
2019-08-03 22:00:00 20.9 9 Oeste 13 Oeste 0 1009.4 0.7 87
2019-08-03 21:00:00 21.2 10 Oeste 14 Oeste 0 1009.1 0.5 85
2019-08-03 20:00:00 22.5 12 Noroeste 20 Noroeste 0 1008.8 0.3 82
2019-08-03 19:00:00 22 13 Noroeste 18 Noroeste 0 1008.7 0 83
2019-08-03 18:00:00 22.5 10 Noroeste 15 Norte 0 1008.6 -0.2 81
2019-08-03 17:00:00 22.7 10 Norte 13 Nordeste 0 1008.5 0 80
2019-08-03 16:00:00 23.4 11 Nordeste 17 Nordeste 0 1008.7 0.1 81
2019-08-03 15:00:00 23.1 14 Nordeste 19 Nordeste 0 1008.8 0.2 82
2019-08-03 14:00:00 23 16 Nordeste 25 Nordeste 0 1008.5 -0.2 83
2019-08-03 13:00:00 22.6 18 Nordeste 27 Este 0 1008.6 -0.6 84
2019-08-03 12:00:00 22.6 20 Nordeste 29 Este 0 1008.6 -0.5 84
2019-08-03 11:00:00 22.1 18 Este 24 Este 0 1008.7 0 84
2019-08-03 10:00:00 21.4 13 Este 28 Este 0 1009.2 0.4 88
2019-08-03 09:00:00 20.2 15 Este 19 Este 0 1009.1 0 90
2019-08-03 08:00:00 19 11 Este 18 Este 0 1008.7 -0.7 92
2019-08-03 07:00:00 18.2 12 Sudeste 20 Este 0 1008.8 -1 92
2019-08-03 06:00:00 18.1 12 Este 17 Este 0 1009.1 -1 91
2019-08-03 05:00:00 18.2 13 Sudeste 19 Sudeste 0 1009.4 -1 90
2019-08-03 04:00:00 18.2 12 Sudeste 17 Sudeste 0 1009.8 -1 90
2019-08-03 03:00:00 18.9 14 Este 23 Este 0 1010.1 -0.9 90
2019-08-03 02:00:00 19.3 17 Este 23 Este 0 1010.4 -0.8 90
2019-08-03 01:00:00 19.3 15 Este 23 Este 0 1010.8 -0.1 90
2019-08-03 00:00:00 19.4 14 Este 24 Este 0 1011 0.2 89
2019-08-02 23:00:00 19.7 17 Este 26 Este 0 1011.2 0.5 88
2019-08-02 22:00:00 19.9 19 Este 29 Este 0 1010.9 0.1 87
2019-08-02 21:00:00 20.5 24 Este 35 Este 0 1010.8 -0.1 84
2019-08-02 20:00:00 21.1 21 Este 32 Este 0 1010.7 -0.6 82
2019-08-02 19:00:00 21.7 22 Este 36 Este 0 1010.8 -0.8 81
2019-08-02 18:00:00 22.1 25 Este 33 Este 0 1010.9 -0.8 80
2019-08-02 17:00:00 22.4 23 Este 36 Este 0 1011.3 -0.6 79
2019-08-02 16:00:00 22.7 27 Este 38 Nordeste 0 1011.6 -0.4 78
2019-08-02 15:00:00 22.5 28 Este 36 Este 0 1011.7 -0.4 77
2019-08-02 14:00:00 22.7 24 Este 44 Nordeste 0 1011.9 -0.2 80
2019-08-02 13:00:00 22.6 23 Nordeste 31 Nordeste 0 1012 0 81
2019-08-02 12:00:00 22.7 19 Nordeste 26 Este 0 1012.1 0.5 81
2019-08-02 11:00:00 22.1 13 Nordeste 21 Nordeste 0 1012.1 0.8 84
2019-08-02 10:00:00 21 9 Este 12 Este 0 1012 0.8 87
2019-08-02 09:00:00 20.1 7 Este 12 Sudeste 0 1011.6 0.6 91
2019-08-02 08:00:00 17.9 9 Sudeste 13 Sudeste 0 1011.3 -0.1 92
2019-08-02 07:00:00 17.9 9 Sudeste 13 Sur 0 1011.2 -0.5 92
2019-08-02 06:00:00 17.9 6 Sudeste 10 Sur 0 1011 -0.8 91
2019-08-02 05:00:00 17.9 6 Sudeste 8 Sudeste 0 1011.4 -0.7 91
2019-08-02 04:00:00 17.8 2 Sudoeste 6 Sudeste 0 1011.7 -0.6 91
2019-08-02 03:00:00 17.9 6 Sur 7 Sudeste 0 1011.8 -0.5 90
2019-08-02 02:00:00 17.9 6 Sur 9 Sur 0 1012.1 -0.2 90
2019-08-02 01:00:00 18 7 Sur 10 Sur 0 1012.3 0.7 89
2019-08-02 00:00:00 17.9 9 Sur 11 Sur 0 1012.3 1 89
2019-08-01 23:00:00 18.1 9 Sudeste 13 Sudeste 0 1012.3 1.4 88
2019-08-01 22:00:00 18.8 9 Sudeste 12 Sudeste 0 1011.6 1 86
2019-08-01 21:00:00 19.5 10 Sudeste 18 Este 0 1011.3 1 82
2019-08-01 20:00:00 20.1 14 Este 21 Nordeste 0 1010.9 0.9 83
2019-08-01 19:00:00 21.2 10 Nordeste 15 Nordeste 0 1010.6 0.6 80
2019-08-01 18:00:00 20.7 10 Nordeste 14 Nordeste 0 1010.3 0.4 80
2019-08-01 17:00:00 21.3 9 Nordeste 12 Nordeste 0 1010 0.1 79
2019-08-01 16:00:00 21.1 7 Norte 18 Noroeste 0 1010 0.2 82
2019-08-01 15:00:00 19.8 8 Noroeste 13 Noroeste 0 1009.9 0.1 86
2019-08-01 14:00:00 20.5 7 Noroeste 13 Noroeste 0 1009.9 0.3 88
2019-08-01 13:00:00 19.5 8 Noroeste 14 Noroeste 0 1009.8 0.4 90
2019-08-01 12:00:00 19.2 7 Oeste 14 Oeste 0 1009.8 0.5 91
2019-08-01 11:00:00 18.5 10 Oeste 15 Oeste 0 1009.6 0.6 92
2019-08-01 10:00:00 17.7 10 Oeste 14 Sudoeste 0.2 1009.4 0.5 93
2019-08-01 09:00:00 17.1 10 Sudoeste 17 Sudoeste 0.2 1009.3 -0.1 92
2019-08-01 08:00:00 17 11 Oeste 14 Oeste 0 1009 -0.3 90
2019-08-01 07:00:00 17.5 6 Sudoeste 13 Sur 0 1008.9 -0.9 88
2019-08-01 06:00:00 18.1 7 Sur 16 Sudeste 0 1009.4 -1 86
2019-08-01 05:00:00 18.4 8 Sudeste 17 Este 0 1009.3 -1.6 85
2019-08-01 04:00:00 18.3 10 Sudeste 17 Sudeste 0 1009.8 -1.5 84
2019-08-01 03:00:00 18.6 9 Sudeste 14 Sudeste 0 1010.4 -1.2 82
2019-08-01 02:00:00 18.7 8 Sudeste 17 Sudeste 0 1010.9 -1 81
2019-08-01 01:00:00 18.8 12 Este 23 Este 0 1011.3 -0.1 79
2019-08-01 00:00:00 18.9 14 Este 26 Este 0 1011.6 0.4 77
2019-07-31 23:00:00 19.2 17 Este 30 Este 0 1011.9 0.7 75
2019-07-31 22:00:00 19.2 22 Este 30 Este 0 1011.4 0.2 73
2019-07-31 21:00:00 19.4 21 Este 28 Este 0 1011.2 -0.3 72
2019-07-31 20:00:00 19.6 22 Este 32 Este 0 1011.2 -0.4 71
2019-07-31 19:00:00 19.9 24 Este 38 Este 0 1011.2 -0.8 70
2019-07-31 18:00:00 20.3 26 Este 39 Este 0 1011.5 -0.8 70
2019-07-31 17:00:00 20.3 28 Este 39 Este 0 1011.6 -1.2 69
2019-07-31 16:00:00 21.4 26 Este 38 Nordeste 0 1012 -1.3 65
2019-07-31 15:00:00 21 28 Este 37 Este 0 1012.3 -1.4 66
2019-07-31 14:00:00 20.9 26 Este 37 Este 0 1012.8 -0.9 67
2019-07-31 13:00:00 21.3 25 Este 33 Este 0 1013.3 -0.6 64
2019-07-31 12:00:00 21.2 22 Este 30 Este 0 1013.7 -0.2 65
2019-07-31 11:00:00 20.6 13 Nordeste 19 Este 0 1013.7 -0.2 69
2019-07-31 10:00:00 20.1 8 Este 13 Este 0 1013.9 -0.1 68
2019-07-31 09:00:00 19.1 8 Sudeste 11 Sur 0 1013.9 -0.1 77
2019-07-31 08:00:00 16.6 9 Sur 11 Sudeste 0 1013.9 -0.4 83
2019-07-31 07:00:00 15.6 9 Sur 12 Sur 0 1014 -0.4 83
2019-07-31 06:00:00 16.2 8 Sur 10 Sur 0 1014 -0.9 81
2019-07-31 05:00:00 17 8 Sur 14 Sur 0 1014.3 -1 79
2019-07-31 04:00:00 17 9 Sur 12 Sur 0 1014.4 -1 79
2019-07-31 03:00:00 17.7 6 Sudoeste 10 Sudoeste 0 1014.9 -0.7 75
2019-07-31 02:00:00 17.5 8 Sudoeste 12 Sudoeste 0 1015.3 -0.4 75
2019-07-31 01:00:00 17.9 7 Sudoeste 12 Sudoeste 0 1015.4 0.3 74
2019-07-31 00:00:00 18.1 2 Sudoeste 6 Oeste 0 1015.6 0.7 70
2019-07-30 23:00:00 18 4 Oeste 13 Noroeste 0 1015.7 0.9 69
2019-07-30 22:00:00 18.4 8 Norte 16 Norte 0 1015.1 0.2 68
2019-07-30 21:00:00 18.9 9 Noroeste 18 Norte 0 1014.9 -0.2 67
2019-07-30 20:00:00 19.9 12 Noroeste 22 Norte 0 1014.8 -0.2 68
2019-07-30 19:00:00 20.1 17 Noroeste 23 Norte 0 1014.9 0 68
2019-07-30 18:00:00 19.9 14 Noroeste 27 Noroeste 0 1015.1 0.2 67
2019-07-30 17:00:00 20.6 18 Noroeste 31 Noroeste 0 1015 0 66
2019-07-30 16:00:00 20.5 19 Noroeste 33 Noroeste 0 1014.9 0 66
2019-07-30 15:00:00 20.3 22 Noroeste 36 Noroeste 0 1014.9 0.3 65
2019-07-30 14:00:00 20.5 19 Noroeste 34 Noroeste 0 1015 0.9 66
2019-07-30 13:00:00 19.1 29 Noroeste 46 Noroeste 0 1014.9 1.1 65
2019-07-30 12:00:00 19.6 26 Noroeste 41 Noroeste 0 1014.6 1.3 68
2019-07-30 11:00:00 20.2 23 Oeste 40 Oeste 0 1014.1 1.4 62
2019-07-30 10:00:00 19.2 24 Oeste 43 Oeste 0 1013.8 1.6 66
2019-07-30 09:00:00 18.7 30 Oeste 46 Oeste 0 1013.3 1.5 68
2019-07-30 08:00:00 18.2 27 Oeste 46 Oeste 0 1012.7 1.3 69
2019-07-30 07:00:00 18 26 Oeste 45 Noroeste 0 1012.2 0.8 69
2019-07-30 06:00:00 18.2 30 Oeste 51 Oeste 0 1011.8 0.6 68
2019-07-30 05:00:00 18.6 33 Oeste 48 Oeste 0 1011.4 0.5 69
2019-07-30 04:00:00 18.8 31 Noroeste 50 Noroeste 0 1011.4 0.5 70
2019-07-30 03:00:00 18.9 26 Noroeste 46 Noroeste 0 1011.2 0.7 73
2019-07-30 02:00:00 19.2 31 Noroeste 46 Noroeste 0 1010.9 0.8 72
2019-07-30 01:00:00 19.1 26 Noroeste 47 Oeste 0 1010.9 1.7 73
2019-07-30 00:00:00 19.3 32 Noroeste 49 Noroeste 0 1010.5 1.8 71
2019-07-29 23:00:00 19.5 31 Noroeste 49 Noroeste 0 1010.1 1.9 71
2019-07-29 22:00:00 19.8 31 Noroeste 45 Noroeste 0 1009.2 1.4 70
2019-07-29 21:00:00 19.8 26 Noroeste 46 Noroeste 0 1008.7 1.2 71
2019-07-29 20:00:00 20.3 21 Noroeste 31 Noroeste 0 1008.2 1.1 73
2019-07-29 19:00:00 20.6 20 Noroeste 33 Noroeste 0 1007.8 1.2 73
2019-07-29 18:00:00 20.8 20 Noroeste 32 Noroeste 0 1007.5 1.3 72
2019-07-29 17:00:00 21.4 14 Noroeste 24 Noroeste 0 1007.1 1.3 70
2019-07-29 16:00:00 21.2 13 Noroeste 30 Noroeste 0 1006.6 1 70
2019-07-29 15:00:00 21.1 18 Noroeste 30 Noroeste 0 1006.2 1.2 71
2019-07-29 14:00:00 21 19 Noroeste 37 Noroeste 0 1005.8 1.1 73
2019-07-29 13:00:00 20.6 23 Noroeste 37 Noroeste 0 1005.6 1.4 76
2019-07-29 12:00:00 21.3 24 Noroeste 31 Noroeste 0 1005 1.2 76
2019-07-29 11:00:00 22.5 15 Noroeste 23 Norte 0 1004.7 1.5 77
2019-07-29 10:00:00 21.7 15 Oeste 26 Sudoeste 0 1004.2 1.7 83
2019-07-29 09:00:00 20.4 14 Oeste 23 Sudoeste 0 1003.8 1.5 86
2019-07-29 08:00:00 19.1 14 Sudoeste 23 Oeste 0 1003.2 1 86
2019-07-29 07:00:00 17.7 13 Sudoeste 19 Sudoeste 0 1002.5 0.4 89
2019-07-29 06:00:00 17.3 12 Sudoeste 17 Sudoeste 0 1002.3 0 90
2019-07-29 05:00:00 17.1 9 Oeste 12 Sudoeste 0 1002.2 -0.4 88
2019-07-29 04:00:00 17.1 11 Sur 16 Sudeste 0 1002.1 -0.6 88
2019-07-29 03:00:00 17.5 11 Sur 15 Sudeste 0 1002.3 -0.8 87
2019-07-29 02:00:00 18 10 Sudeste 19 Sudeste 0 1002.6 -1 86
2019-07-29 01:00:00 18.4 12 Sudeste 18 Sudeste 0 1002.7 -1.1 85
2019-07-29 00:00:00 18.7 14 Sudeste 21 Sudeste 0 1003.1 -0.8 83
2019-07-28 23:00:00 19.1 14 Este 24 Este 0 1003.6 -0.7 82
2019-07-28 22:00:00 19.3 17 Este 33 Este 0 1003.8 -0.7 78
2019-07-28 21:00:00 20.3 25 Este 35 Este 0 1003.9 -1 73
2019-07-28 20:00:00 20.6 26 Este 36 Este 0 1004.3 -1.2 73
2019-07-28 19:00:00 20.9 27 Este 38 Este 0 1004.5 -1.7 72
2019-07-28 18:00:00 21.6 21 Este 30 Este 0 1004.9 -1.6 72
2019-07-28 17:00:00 21.7 22 Este 27 Este 0 1005.5 -1.5 68
2019-07-28 16:00:00 22.3 14 Este 22 Nordeste 0 1006.2 -1.2 71
2019-07-28 15:00:00 21.8 14 Nordeste 21 Nordeste 0 1006.5 -1.1 75
2019-07-28 14:00:00 20.9 11 Nordeste 17 Norte 0 1007 -0.7 78
2019-07-28 13:00:00 20.4 9 Norte 17 Noroeste 0 1007.4 -0.3 77
2019-07-28 12:00:00 20.4 9 Noroeste 16 Noroeste 0 1007.6 0.2 77
2019-07-28 11:00:00 19.4 9 Sudoeste 19 Sudoeste 0 1007.7 0.2 83
2019-07-28 10:00:00 17.5 12 Sudoeste 23 Sudoeste 0 1007.7 0.1 89
2019-07-28 09:00:00 16.4 14 Sudoeste 22 Sudoeste 0 1007.4 0.2 92
2019-07-28 08:00:00 16 15 Sudoeste 25 Sur 0 1007.5 0.2 93
2019-07-28 07:00:00 15.7 14 Sudoeste 22 Sudoeste 0 1007.6 0 93
2019-07-28 06:00:00 15.7 13 Sudoeste 23 Sudoeste 0 1007.2 -0.6 93
2019-07-28 05:00:00 15.8 14 Sudoeste 23 Sudoeste 0 1007.3 -0.5 93
2019-07-28 04:00:00 16 13 Sudoeste 24 Sudoeste 0 1007.6 -0.2 93
2019-07-28 03:00:00 16 10 Sudoeste 21 Sudoeste 0.6 1007.8 0 93
2019-07-28 02:00:00 16.1 13 Sudoeste 26 Sudoeste 0 1007.8 0 93
2019-07-28 01:00:00 16.4 13 Sudoeste 22 Oeste 0 1007.8 0.5 93
2019-07-28 00:00:00 16.3 14 Sudoeste 23 Sudoeste 0 1007.8 0.7 93
2019-07-27 23:00:00 16.1 11 Sudoeste 23 Sudoeste 0.6 1007.8 1.1 93
2019-07-26 12:00:00 18.1 10 Sudoeste 22 Oeste 2.8 1009.4 0.8 96
2019-07-26 11:00:00 18.3 9 Sudoeste 15 Oeste 1.2 1009.2 0.6 95
2019-07-26 10:00:00 17.9 12 Oeste 34 Noroeste 3.2 1009.2 0.6 96
2019-07-26 09:00:00 18.4 12 Oeste 19 Oeste 0.8 1008.6 0 95
2019-07-26 08:00:00 18.2 8 Sudoeste 18 Sudoeste 0 1008.6 0.3 95
2019-07-26 07:00:00 18.1 7 Noroeste 31 Noroeste 0.2 1008.6 -0.1 96
2019-07-26 06:00:00 17.9 25 Noroeste 39 Noroeste 0.6 1008.6 -0.1 96
2019-07-26 05:00:00 18.5 9 Oeste 31 Norte 0.8 1008.3 -0.4 96
2019-07-26 04:00:00 19.2 8 Norte 19 Noroeste 0.6 1008.7 -0.3 95
2019-07-26 03:00:00 19.2 10 Norte 18 Oeste 0.4 1008.7 0.1 94
2019-07-26 02:00:00 20 7 Oeste 17 Oeste 0.4 1008.7 0 93
2019-07-26 01:00:00 20.5 10 Sudoeste 16 Norte 0 1009 0.6 91
2019-07-26 00:00:00 21.1 14 Norte 28 Norte 0 1008.6 0.4 90
2019-07-25 23:00:00 21.7 15 Norte 23 Norte 0 1008.7 1.2 90
2019-07-25 22:00:00 21.9 9 Norte 12 Noroeste 0 1008.4 1.8 91
2019-07-25 21:00:00 21.9 8 Norte 17 Noroeste 0 1008.2 1.9 90
2019-07-25 20:00:00 22.6 13 Noroeste 20 Noroeste 0 1007.5 1.5 88
2019-07-25 19:00:00 23 15 Noroeste 20 Norte 0 1006.6 0.7 87
2019-07-25 18:00:00 23.3 13 Noroeste 19 Norte 0 1006.3 0.5 89
2019-07-25 17:00:00 23.8 14 Norte 21 Noroeste 0 1006 0.5 86
2019-07-25 16:00:00 23.7 8 Noroeste 16 Norte 0 1005.9 0.7 86
2019-07-25 15:00:00 23.8 9 Noroeste 15 Noroeste 0 1005.8 0.9 85
2019-07-25 14:00:00 23.9 8 Noroeste 15 Noroeste 0 1005.5 0.7 85
2019-07-25 13:00:00 24 5 Norte 11 Noroeste 0 1005.2 0.7 85
2019-07-25 12:00:00 24.3 6 Norte 16 Noroeste 0 1004.9 0.4 89
2019-07-25 11:00:00 22.9 10 Noroeste 16 Noroeste 0 1004.8 0.7 91
2019-07-25 10:00:00 23.1 8 Noroeste 14 Oeste 0 1004.5 1 93
2019-07-25 09:00:00 22.6 7 Oeste 10 Oeste 0 1004.5 1.1 94
2019-07-25 08:00:00 21.8 0 Calma 6 Norte 0 1004.1 0.1 94
2019-07-25 07:00:00 21.5 4 Nordeste 6 Norte 0 1003.5 -0.7 94
2019-07-25 06:00:00 21.6 4 Noroeste 10 Oeste 0 1003.4 -1.2 95
2019-07-25 05:00:00 21.1 7 Oeste 12 Oeste 0 1004 -1 96
2019-07-25 04:00:00 21.1 9 Oeste 14 Oeste 0 1004.2 -1 95
2019-07-25 03:00:00 21.6 9 Oeste 21 Oeste 0 1004.6 -0.5 95
2019-07-25 02:00:00 21.5 16 Oeste 25 Oeste 0 1005 0.3 95
2019-07-25 01:00:00 21.9 17 Oeste 26 Oeste 0 1005.2 1.5 94
2019-07-25 00:00:00 21.8 14 Oeste 21 Oeste 0 1005.1 1.7 94
2019-07-24 23:00:00 22.1 10 Oeste 21 Oeste 0 1004.7 1.3 93
2019-07-24 22:00:00 22 12 Oeste 16 Oeste 0 1003.7 0.3 92
2019-07-24 21:00:00 22.7 8 Nordeste 17 Nordeste 0 1003.4 -0.5 90
2019-07-24 20:00:00 23.2 9 Nordeste 24 Este 0 1003.4 -1 89
2019-07-24 19:00:00 23.5 16 Este 35 Este 0 1003.4 -1.6 87
2019-07-24 18:00:00 23.9 19 Nordeste 31 Este 0 1003.9 -2 86
2019-07-24 17:00:00 24.2 22 Este 33 Este 0 1004.4 -2.2 85
2019-07-24 16:00:00 24.2 23 Este 32 Este 0 1005 -2.2 84
2019-07-24 15:00:00 24.8 18 Este 27 Este 0 1005.9 -1.7 84
2019-07-24 14:00:00 24.4 16 Nordeste 22 Este 0 1006.6 -1.5 88
2019-07-24 13:00:00 24 13 Nordeste 19 Nordeste 0 1007.2 -1.7 89
2019-07-24 12:00:00 23.2 5 Norte 16 Este 0 1007.6 -1.3 89
2019-07-24 11:00:00 23.7 8 Sudeste 13 Sudeste 0 1008.1 -0.8 94
2019-07-24 10:00:00 21.6 3 Noroeste 6 Sudoeste 0 1008.9 0.1 95
2019-07-24 09:00:00 20.9 4 Sudoeste 8 Oeste 0 1008.9 0.2 96
2019-07-24 08:00:00 20.9 4 Oeste 8 Oeste 0 1008.9 0.4 96
2019-07-24 07:00:00 20.7 7 Oeste 11 Sudoeste 0 1008.8 0.4 95
2019-07-24 06:00:00 20.5 8 Sudoeste 17 Noroeste 0 1008.7 0.9 95
2019-07-24 05:00:00 20.4 10 Noroeste 24 Oeste 0 1008.5 -0.3 95
2019-07-24 04:00:00 20.3 18 Oeste 25 Oeste 0 1008.4 -1.7 95
2019-07-24 03:00:00 20 13 Este 17 Este 0 1007.8 -2.5 95
2019-07-24 02:00:00 20.4 4 Nordeste 27 Sur 0 1008.8 -3 94
2019-07-24 01:00:00 20.6 16 Sur 24 Sur 0 1010.1 0.2 95
2019-07-24 00:00:00 20.5 11 Oeste 22 Noroeste 0 1010.3 -1.1 95
2019-07-23 23:00:00 20.7 16 Oeste 34 Oeste 0.4 1011.8 1.4 94
2019-07-23 22:00:00 20.8 15 Oeste 31 Noroeste 1.2 1009.9 1.4 93
2019-07-23 21:00:00 21.9 21 Oeste 36 Oeste 0 1011.4 3.6 91
2019-07-23 20:00:00 21.7 17 Oeste 33 Oeste 0 1010.4 2.9 91
2019-07-23 19:00:00 22.4 20 Oeste 28 Oeste 0 1008.5 1.3 89
2019-07-23 18:00:00 23.2 18 Oeste 34 Oeste 0 1007.8 0.7 88
2019-07-23 17:00:00 23.2 24 Oeste 33 Oeste 0 1007.5 0.3 89
2019-07-23 16:00:00 23.4 16 Oeste 24 Oeste 0 1007.2 0.1 88
2019-07-23 15:00:00 24.7 12 Noroeste 28 Oeste 0 1007.1 0.9 87
2019-07-23 14:00:00 24 22 Oeste 33 Oeste 0 1007.2 0.9 88
2019-07-23 13:00:00 22.2 23 Oeste 35 Oeste 0 1007.1 0 90
2019-07-23 12:00:00 21.8 12 Oeste 29 Oeste 0 1006.2 -0.5 87
2019-07-23 11:00:00 24 17 Oeste 39 Sur 0 1006.3 -0.6 73
2019-07-23 10:00:00 27.6 15 Sur 30 Sur 0 1007.1 0.6 75
2019-07-23 09:00:00 22.2 11 Oeste 16 Oeste 0 1006.7 0.2 92
2019-07-23 08:00:00 21.3 6 Sudoeste 14 Sudoeste 0 1006.9 -0.7 94
2019-07-23 07:00:00 20.4 7 Sudoeste 14 Sudeste 0 1006.5 -0.8 94
2019-07-23 06:00:00 19.8 12 Sudeste 14 Sudeste 0 1006.5 -2.2 93
2019-07-23 05:00:00 20.5 3 Este 37 Este 0 1007.6 -2.5 93
2019-07-23 04:00:00 20.8 26 Este 36 Este 0 1007.3 -3.6 94
2019-07-23 03:00:00 20.4 14 Este 21 Este 0 1008.7 -2.7 94
2019-07-23 02:00:00 20.7 9 Sur 15 Sudeste 0 1010.1 -1.9 94
2019-07-23 01:00:00 21.1 8 Sur 12 Sur 0 1010.9 0.1 94
2019-07-23 00:00:00 21 8 Oeste 24 Noroeste 0 1011.4 0.5 93
2019-07-22 23:00:00 21.7 6 Oeste 28 Sudoeste 0.2 1012 1.3 91
2019-07-22 22:00:00 21.5 3 Norte 9 Nordeste 0 1010.8 -0.2 91
2019-07-22 21:00:00 21.5 7 Nordeste 11 Nordeste 0 1010.9 -0.3 89
2019-07-22 20:00:00 22.7 7 Nordeste 15 Nordeste 0 1010.7 -1.1 85
2019-07-22 19:00:00 23.2 11 Nordeste 18 Nordeste 0 1011 -1.2 85
2019-07-22 18:00:00 23.4 14 Nordeste 18 Nordeste 0 1011.2 -1.4 84
2019-07-22 17:00:00 23.4 13 Nordeste 19 Nordeste 0 1011.8 -1.3 83
2019-07-22 16:00:00 23.8 15 Nordeste 22 Nordeste 0 1012.2 -1.1 82
2019-07-22 15:00:00 24.1 17 Nordeste 26 Nordeste 0 1012.6 -0.7 82
2019-07-22 14:00:00 23.8 18 Nordeste 27 Nordeste 0 1013.1 -0.7 82
2019-07-22 13:00:00 23.6 23 Nordeste 30 Este 0 1013.3 -0.8 82
2019-07-22 12:00:00 23.3 21 Nordeste 30 Este 0 1013.3 -1.2 84
2019-07-22 11:00:00 22.7 21 Este 32 Este 0 1013.8 -1.1 87
2019-07-22 10:00:00 22.6 18 Este 25 Este 0 1014.1 -0.9 87
2019-07-22 09:00:00 21.4 18 Este 26 Este 0 1014.5 -0.7 90
2019-07-22 08:00:00 20 19 Este 29 Este 0 1014.9 -0.4 92
2019-07-22 07:00:00 20.1 16 Este 26 Este 0 1015 -0.8 91
2019-07-22 06:00:00 20.4 13 Sudeste 19 Este 0 1015.2 -1 90
2019-07-22 05:00:00 20.7 13 Este 20 Este 0 1015.3 -1.4 89
2019-07-22 04:00:00 20.6 13 Este 21 Este 0 1015.8 -1.2 89
2019-07-22 03:00:00 20.5 13 Este 21 Este 0 1016.2 -0.9 89
2019-07-22 02:00:00 20.4 12 Este 19 Este 0 1016.7 -0.5 89
2019-07-22 01:00:00 20.8 14 Este 21 Este 0 1017 0.3 87
2019-07-22 00:00:00 20.7 13 Este 18 Este 0 1017.1 0.9 88
2019-07-21 23:00:00 20.9 14 Este 20 Este 0 1017.2 1.4 88
2019-07-21 22:00:00 20.7 12 Este 20 Nordeste 0 1016.7 1 89
2019-07-21 21:00:00 21 14 Nordeste 19 Este 0 1016.2 0.7 88
2019-07-21 20:00:00 21.7 10 Este 19 Este 0 1015.8 0.3 86
2019-07-21 19:00:00 21.9 13 Este 23 Este 0 1015.7 0.6 85
2019-07-21 18:00:00 22.3 17 Este 23 Este 0 1015.5 0.4 84
2019-07-21 17:00:00 23.4 14 Nordeste 27 Este 0 1015.5 0 85
2019-07-21 16:00:00 23.3 17 Este 31 Este 0 1015.1 -0.7 83
2019-07-21 15:00:00 22.5 24 Este 35 Este 0 1015.1 -0.7 86
2019-07-21 14:00:00 21.7 23 Este 31 Este 0 1015.5 -0.1 87
2019-07-21 13:00:00 22.7 17 Este 23 Este 0 1015.8 0.5 90
2019-07-21 12:00:00 21.4 9 Este 17 Sudeste 0 1015.8 0.9 94
2019-07-21 11:00:00 20.1 11 Sudeste 19 Sudeste 1.6 1015.6 1.2 94
2019-07-21 10:00:00 20 8 Sudeste 14 Este 0 1015.3 1.2 94
2019-07-21 09:00:00 20 14 Este 18 Este 0 1014.9 0.8 93
2019-07-21 08:00:00 19.7 6 Este 9 Este 0 1014.4 0.2 93
2019-07-21 07:00:00 19.2 7 Este 8 Este 0 1014.1 -0.2 93
2019-07-21 06:00:00 19.4 2 Este 5 Este 0 1014.1 -0.5 92
2019-07-21 05:00:00 19.5 3 Noroeste 4 Noroeste 0 1014.2 -0.8 91
2019-07-21 04:00:00 19.5 0 Calma 5 Sudoeste 0 1014.3 -0.8 90
2019-07-21 03:00:00 19.7 4 Sudoeste 9 Sudoeste 0 1014.6 -0.3 90
2019-07-21 02:00:00 20.2 8 Oeste 11 Oeste 0 1015 0.4 87
2019-07-21 01:00:00 20.9 4 Nordeste 7 Norte 0 1015.1 1.2 86
2019-07-21 00:00:00 20.9 6 Norte 9 Norte 0 1014.9 1.6 87
2019-07-20 23:00:00 21.1 8 Norte 14 Noroeste 0 1014.6 1.8 87
2019-07-20 22:00:00 21.3 10 Norte 18 Noroeste 0 1013.9 1.5 85
2019-07-20 21:00:00 21.3 11 Noroeste 13 Noroeste 0 1013.3 1.1 86
2019-07-20 20:00:00 22.4 6 Norte 14 Norte 0 1012.8 1.1 83
2019-07-20 19:00:00 22.6 12 Norte 16 Noroeste 0 1012.4 0.8 83
2019-07-20 18:00:00 23.1 8 Norte 10 Norte 0 1012.2 0.7 80
2019-07-20 17:00:00 22.7 10 Norte 24 Noroeste 0 1011.7 0.4 85
2019-07-20 16:00:00 21.9 14 Norte 22 Norte 0 1011.6 0.8 85
2019-07-20 15:00:00 21.8 12 Noroeste 17 Norte 0 1011.5 0.8 85
2019-07-20 14:00:00 21.9 11 Noroeste 17 Noroeste 0 1011.3 1 85
2019-07-20 13:00:00 22.2 8 Noroeste 13 Noroeste 0 1010.8 1 84
2019-07-20 12:00:00 21.3 9 Oeste 17 Oeste 0 1010.7 1.3 84
2019-07-20 11:00:00 21.9 11 Oeste 17 Oeste 0 1010.3 1.3 81
2019-07-20 10:00:00 21.9 9 Oeste 17 Oeste 0 1009.8 1.2 83
2019-07-20 09:00:00 20.9 10 Oeste 16 Oeste 0 1009.4 1.2 88
2019-07-20 08:00:00 19.6 9 Sudoeste 16 Sudoeste 0 1009 1.1 89
2019-07-20 07:00:00 19.2 9 Sudoeste 16 Sudoeste 0 1008.6 0.8 89
2019-07-20 06:00:00 19.1 8 Sudoeste 15 Oeste 0 1008.2 0.5 89
2019-07-20 05:00:00 19.2 9 Sudoeste 13 Sudoeste 0 1007.9 0.1 88
2019-07-20 04:00:00 19.3 7 Sudoeste 10 Sudoeste 0 1007.8 -0.2 88
2019-07-20 03:00:00 19.4 7 Sudoeste 10 Oeste 0 1007.7 -0.3 88
2019-07-20 02:00:00 19.7 7 Oeste 8 Oeste 0 1007.8 0.1 87
2019-07-20 01:00:00 19.9 6 Sudoeste 8 Sudoeste 0 1008 0.9 88
2019-07-20 00:00:00 19.9 5 Oeste 8 Oeste 0 1008 0.9 86
2019-07-19 23:00:00 20.1 5 Noroeste 9 Noroeste 0 1007.7 0.9 84
2019-07-19 22:00:00 20.7 6 Norte 9 Noroeste 0 1007.1 0.5 81
2019-07-19 21:00:00 21.8 5 Norte 10 Nordeste 0 1007.1 0.1 78
2019-07-19 20:00:00 22.1 7 Nordeste 15 Nordeste 0 1006.8 -0.2 79
2019-07-19 19:00:00 22.5 13 Nordeste 20 Nordeste 0 1006.6 -0.7 77
2019-07-19 18:00:00 23 17 Nordeste 27 Nordeste 0 1007 -0.7 75
2019-07-19 17:00:00 23.4 22 Este 33 Este 0 1007 -1 74
2019-07-19 16:00:00 23.4 25 Este 37 Este 0 1007.3 -0.9 73
2019-07-19 15:00:00 23.5 26 Este 35 Nordeste 0 1007.7 -1 73
2019-07-19 14:00:00 23.6 27 Este 37 Este 0 1008 -1.2 71
2019-07-19 13:00:00 23.4 25 Este 36 Este 0 1008.2 -1.6 70
2019-07-19 12:00:00 22.8 25 Este 34 Este 0 1008.7 -1.4 71
2019-07-19 11:00:00 22.2 25 Este 30 Este 0 1009.2 -0.8 75
2019-07-19 10:00:00 21 18 Este 23 Este 0 1009.8 -0.4 82
2019-07-19 09:00:00 20.2 9 Este 13 Este 0 1010.1 -0.4 85
2019-07-19 08:00:00 18.3 10 Sudeste 14 Sur 0 1010 -1.2 90
2019-07-19 07:00:00 16.3 12 Sudeste 16 Sudeste 0 1010.2 -1.4 91
2019-07-19 06:00:00 16.8 11 Sur 13 Sur 0 1010.5 -1.5 90
2019-07-19 05:00:00 17.2 9 Sur 11 Sur 0 1011.2 -1.1 89
2019-07-19 04:00:00 17.5 10 Sur 11 Sur 0 1011.6 -0.9 89
2019-07-19 03:00:00 18.1 6 Sur 7 Sur 0 1012 -0.5 87
2019-07-19 02:00:00 18.5 5 Sur 8 Sur 0 1012.3 -0.3 86
2019-07-19 01:00:00 18.2 8 Sur 9 Sur 0 1012.5 0.1 85
2019-07-19 00:00:00 19 4 Sudeste 5 Sudeste 0 1012.5 0.3 82